x

Smith Island, Wa (sisw1) Weather Station

12:00pm - Mon 3rd Aug 2015 All times are PDT. -7 hours from GMT.

  • Wind
    21mph, 22mph gusts
  • 空気 Temp 57°f
  • Sea Pressure 1013.2mb
  • Smith Island, Wa
  • Smith Island, Wa

More Historic Weather Station data

Upgrade to MSW Pro to gain access to the past 30 days of data for over 8000 Wavebouys and Weather Stations around the globe.

Join Pro

Comparision Forecast

View Surf forecast
   
Mon 08/03 12:00pm 21 22 mph 1013.2mb 57f
11:00am 22 24 mph 1013.2mb 57f
10:00am 23 25 mph 1013.1mb 56f
9:00am 28 31 mph 1012.7mb 55f
8:00am 23 25 mph 1012.9mb 53f
7:00am 24 26 mph 1012.5mb 53f
6:00am 22 24 mph 1012.2mb 53f
5:00am 17 21 mph 1011.7mb 53f
4:00am 18 20 mph 1011.6mb 53f
3:00am 18 20 mph 1011.5mb 54f
2:00am 17
mph
1011.5mb 55f
1:00am 13
mph
1011.9mb 55f
12:00am 13 15 mph 1011.6mb 56f
Sun 08/02 11:00pm 7 8 mph 1011.9mb 55f
10:00pm 7 9 mph 1012.2mb 55f
9:00pm 15 20 mph 1012mb 56f
8:00pm 16 17 mph 1012.2mb 58f
7:00pm 11 16 mph 1012.3mb 59f
6:00pm 9 11 mph 1012.7mb 57f
5:00pm 6 7 mph 1012.9mb 59f
4:00pm 9
mph
1013.2mb 59f
3:00pm 9 10 mph 1013.6mb 59f
2:00pm 6 7 mph 1013.9mb 58f
1:00pm 5 6 mph 1014.2mb 60f
12:00pm 3 6 mph 1014.4mb 59f
11:00am 6 7 mph 1014.6mb 58f
10:00am 7
mph
1014.8mb 58f
9:00am 6 7 mph 1014.7mb 57f
8:00am 5
mph
1014.5mb 57f
7:00am 5
mph
1014.2mb 55f
6:00am  -  1 mph 1013.8mb 55f
5:00am 1
mph
1013.7mb 54f
4:00am 3
mph
1013.4mb 53f
3:00am 5 6 mph 1013.6mb 54f
2:00am 9 11 mph 1013.5mb 54f
1:00am 5
mph
1013.3mb 54f
12:00am 6
mph
1013.3mb 55f
Sat 08/01 11:00pm 2 3 mph 1013.3mb 56f
10:00pm 9 11 mph 1013.5mb 56f
9:00pm 7 9 mph 1013.7mb 57f
8:00pm 7 9 mph 1013.8mb 58f
7:00pm 9 11 mph 1013.8mb 59f
6:00pm 11 14 mph 1014.1mb 60f
5:00pm 7 8 mph 1014.5mb 60f
4:00pm 5
mph
1015mb 60f
3:00pm 5 6 mph 1015.4mb 62f
2:00pm 5 6 mph 1016.1mb 60f
1:00pm 5 6 mph 1016.1mb 60f
12:00pm 3 6 mph 1016.6mb 59f
11:00am 6 7 mph 1016.8mb 56f
10:00am 5 6 mph 1017.1mb 56f
9:00am 3
mph
1017.2mb 55f
8:00am  -  1 mph 1017.1mb 56f
7:00am 3
mph
1017.1mb 55f
6:00am 6
mph
1016.5mb 53f
5:00am 7
mph
1016.3mb 53f
4:00am 6 7 mph 1016.1mb 53f
3:00am 10
mph
1016.2mb 53f
2:00am 9 10 mph 1016mb 54f
1:00am 2 5 mph 1016mb 54f
12:00am 7 10 mph 1016.1mb 56f
Fri 07/31 11:00pm 11 13 mph 1015.7mb 56f
10:00pm 8 10 mph 1016mb 56f
9:00pm 5 7 mph 1015.7mb 56f
8:00pm 8
mph
1015.7mb 59f
7:00pm 8 9 mph 1015.9mb 59f
6:00pm 9 10 mph 1016.5mb 62f
5:00pm 10 11 mph 1017.1mb 59f
4:00pm 10 13 mph 1017.7mb 60f
3:00pm 9 10 mph 1018.3mb 60f
2:00pm 7 8 mph 1018.5mb 59f
1:00pm 6 7 mph 1018.8mb 60f
12:00pm 5 6 mph 1019.3mb 59f
11:00am 5 6 mph 1019.7mb 58f
10:00am 2 3 mph 1019.8mb 58f
9:00am 6 7 mph 1019.8mb 56f
8:00am 7 8 mph 1019.6mb 56f
7:00am 9 10 mph 1019.1mb 55f
6:00am 9 10 mph 1018.5mb 54f
5:00am 6 7 mph 1018.1mb 53f
4:00am 10
mph
1017.9mb 57f
3:00am 3 5 mph 1017.6mb 55f
2:00am 8 9 mph 1017.3mb 59f
1:00am 6 7 mph 1017.5mb 60f
12:00am 14 16 mph 1017.3mb 58f
Thu 07/30 11:00pm 10 11 mph 1017.4mb 57f
10:00pm 17 18 mph 1017.1mb 58f
9:00pm 17 20 mph 1016.7mb 59f